Disclaimer

Please do not use the information listed here in-flight or in-navigation, as they are not provided to us by the airports but are provided by volunteers, so they might be outdated.

Search


Regions


Airport information page

No radio frequency information is available.

Airport informations:
Latitude: 07° 22' 02.29" N
Longitude: 134° 32' 39.40" E
Elevation: 176 feet - 54 meters
Operating hours: Remarks
Operating agency: U.S.CIVIL AIRPORT WHEREIN PERMIT COVERS USE BY TRANSIT MILITARY AIRCRAFT
Timezone: UTC+9
Fuel: Jet A, without icing inhibitor.

115/145 octane gasoline, leaded, MIL-L-5572F (PURPLE)

Runway information:
09/27 - 7200 x 150 feet< - >2195 x 46 meters

Recent METARs:
PTRO 142050Z 00000KT 15SM SCT017 BKN300 25/23 A2982
PTRO 142050Z 00000KT 15SM SCT017 BKN300 25/23 A2982
PTRO 142150Z 00000KT 15SM SCT017 BKN300 26/24 A2984

Airport on the map: